createdAt,value
2018-09-25T00:00:35.201Z,95611.04
2018-09-25T00:03:09.104Z,95637.98
2018-09-25T00:05:43.336Z,95619.28
2018-09-25T00:08:17.164Z,95605.65
2018-09-25T00:10:51.057Z,95606.16
2018-09-25T00:13:24.944Z,95604.19
2018-09-25T00:15:58.675Z,95608.31
2018-09-25T00:18:32.744Z,95603.48
2018-09-25T00:21:06.593Z,95596.97
2018-09-25T00:23:40.537Z,95601.82
2018-09-25T00:26:14.422Z,95600.69
2018-09-25T00:28:48.413Z,95627.80
2018-09-25T00:31:22.137Z,95609.61
2018-09-25T00:33:56.014Z,95613.68
2018-09-25T00:36:30.036Z,95647.53
2018-09-25T00:39:04.006Z,95607.37
2018-09-25T00:41:37.846Z,95615.56
2018-09-25T00:44:11.815Z,95624.75
2018-09-25T00:46:45.701Z,95627.93
2018-09-25T00:49:19.475Z,95623.89
2018-09-25T00:51:53.368Z,95637.77
2018-09-25T00:54:27.360Z,95616.27
2018-09-25T00:57:01.297Z,95628.37
2018-09-25T00:59:35.111Z,95638.93
2018-09-25T01:02:09.076Z,95643.65
2018-09-25T01:04:43.016Z,95636.70
2018-09-25T01:07:16.914Z,95649.06
2018-09-25T01:09:50.800Z,95642.86
2018-09-25T01:12:24.715Z,95653.34
2018-09-25T01:14:58.552Z,95653.08
2018-09-25T01:17:32.518Z,95659.55
2018-09-25T01:20:06.283Z,95656.23
2018-09-25T01:22:40.285Z,95653.89
2018-09-25T01:25:14.146Z,95662.50
2018-09-25T01:27:48.229Z,95661.71
2018-09-25T01:30:22.237Z,95662.78
2018-09-25T01:32:56.000Z,95660.20
2018-09-25T01:35:29.908Z,95656.31
2018-09-25T01:38:03.947Z,95655.20
2018-09-25T01:40:37.749Z,95666.84
2018-09-25T01:43:11.728Z,95657.22
2018-09-25T01:45:45.633Z,95678.18
2018-09-25T01:48:19.612Z,95658.61
2018-09-25T01:50:53.514Z,95678.04
2018-09-25T01:53:27.444Z,95684.15
2018-09-25T01:56:01.295Z,95681.34
2018-09-25T01:58:35.357Z,95677.23
2018-09-25T02:01:09.213Z,95665.16
2018-09-25T02:03:43.102Z,95663.41
2018-09-25T02:06:16.969Z,95674.08
2018-09-25T02:08:50.828Z,95669.75
2018-09-25T02:11:24.672Z,95675.05
2018-09-25T02:13:58.654Z,95674.14
2018-09-25T02:16:32.634Z,95685.31
2018-09-25T02:19:06.595Z,95663.80
2018-09-25T02:21:40.632Z,95675.55
2018-09-25T02:24:14.596Z,95675.55
2018-09-25T02:26:48.549Z,95683.44
2018-09-25T02:29:22.411Z,95685.89
2018-09-25T02:31:56.320Z,95680.95
2018-09-25T02:34:30.140Z,95689.44
2018-09-25T02:37:04.075Z,95692.02
2018-09-25T02:39:37.982Z,95703.64
2018-09-25T02:42:11.783Z,95674.62
2018-09-25T02:44:45.599Z,95679.55
2018-09-25T02:47:19.615Z,95695.77
2018-09-25T02:49:53.487Z,95705.28
2018-09-25T02:52:27.360Z,95688.85
2018-09-25T02:55:01.177Z,95694.59
2018-09-25T02:57:35.168Z,95691.33
2018-09-25T03:00:12.545Z,95700.95
2018-09-25T03:02:46.412Z,95698.59
2018-09-25T03:05:20.228Z,95696.84
2018-09-25T03:07:54.106Z,95695.91
2018-09-25T03:10:27.977Z,95699.08
2018-09-25T03:13:01.941Z,95706.82
2018-09-25T03:15:35.828Z,95710.70
2018-09-25T03:18:09.781Z,95700.49
2018-09-25T03:20:43.612Z,95707.63
2018-09-25T03:23:17.456Z,95707.76
2018-09-25T03:25:51.389Z,95708.24
2018-09-25T03:28:25.202Z,95712.47
2018-09-25T03:30:58.902Z,95728.65
2018-09-25T03:33:32.775Z,95706.95
2018-09-25T03:36:06.636Z,95708.92
2018-09-25T03:38:40.500Z,95723.38
2018-09-25T03:41:14.373Z,95742.39
2018-09-25T03:43:48.324Z,95714.92
2018-09-25T03:46:22.276Z,95719.85
2018-09-25T03:48:56.048Z,95724.56
2018-09-25T03:51:29.935Z,95731.36
2018-09-25T03:54:03.825Z,95721.64
2018-09-25T03:56:37.768Z,95721.86
2018-09-25T03:59:11.637Z,95729.84
2018-09-25T04:01:45.483Z,95719.16
2018-09-25T04:04:19.309Z,95712.38
2018-09-25T04:06:53.080Z,95720.57
2018-09-25T04:09:26.975Z,95721.05
2018-09-25T04:12:00.860Z,95734.89
2018-09-25T04:14:34.910Z,95736.89
2018-09-25T04:17:08.775Z,95739.58
2018-09-25T04:19:42.787Z,95739.13
2018-09-25T04:22:16.580Z,95738.53
2018-09-25T04:24:50.500Z,95745.22
2018-09-25T04:27:24.313Z,95740.87
2018-09-25T04:29:58.320Z,95746.27
2018-09-25T04:32:32.290Z,95750.86
2018-09-25T04:35:06.091Z,95758.95
2018-09-25T04:37:40.016Z,95757.67
2018-09-25T04:40:14.041Z,95769.65
2018-09-25T04:42:48.464Z,95781.83
2018-09-25T04:45:22.376Z,95780.66
2018-09-25T04:47:56.315Z,95780.21
2018-09-25T04:50:30.236Z,95782.31
2018-09-25T04:53:04.065Z,95786.91
2018-09-25T04:55:37.882Z,95775.28
2018-09-25T04:58:12.064Z,95776.33
2018-09-25T05:00:45.863Z,95779.50
2018-09-25T05:03:19.809Z,95768.00
2018-09-25T05:05:53.704Z,95780.45
2018-09-25T05:08:27.709Z,95795.23
2018-09-25T05:11:01.704Z,95791.00
2018-09-25T05:13:35.628Z,95794.17
2018-09-25T05:16:09.420Z,95796.99
2018-09-25T05:18:43.283Z,95794.53
2018-09-25T05:21:17.281Z,95784.44
2018-09-25T05:23:51.188Z,95804.72
2018-09-25T05:26:25.064Z,95788.88
2018-09-25T05:28:58.944Z,95775.84
2018-09-25T05:31:32.731Z,95797.58
2018-09-25T05:34:06.766Z,95794.06
2018-09-25T05:36:40.739Z,95789.46
2018-09-25T05:39:14.988Z,95796.84
2018-09-25T05:41:49.209Z,95796.73
2018-09-25T05:44:23.061Z,95787.44
2018-09-25T05:46:57.151Z,95791.55
2018-09-25T05:49:31.073Z,95785.67
2018-09-25T05:52:05.005Z,95814.81
2018-09-25T05:54:38.833Z,95801.16
2018-09-25T05:57:12.640Z,95803.41
2018-09-25T05:59:46.549Z,95813.98
2018-09-25T06:02:20.387Z,95815.02
2018-09-25T06:04:54.056Z,95794.57
2018-09-25T06:07:27.845Z,95808.31
2018-09-25T06:10:01.740Z,95803.84
2018-09-25T06:12:35.555Z,95796.06
2018-09-25T06:15:10.303Z,95809.09
2018-09-25T06:17:44.189Z,95788.53
2018-09-25T06:20:17.999Z,95793.22
2018-09-25T06:22:52.006Z,95786.27
2018-09-25T06:25:25.819Z,95793.19
2018-09-25T06:27:59.750Z,95789.75
2018-09-25T06:30:33.592Z,95803.84
2018-09-25T06:33:07.933Z,95816.11
2018-09-25T06:35:41.761Z,95802.33
2018-09-25T06:38:15.672Z,95801.30
2018-09-25T06:40:49.658Z,95792.47
2018-09-25T06:43:23.432Z,95799.30
2018-09-25T06:45:57.253Z,95791.22
2018-09-25T06:48:31.123Z,95797.86
2018-09-25T06:51:04.972Z,95811.48
2018-09-25T06:53:39.919Z,95810.92
2018-09-25T06:56:13.792Z,95827.39
2018-09-25T06:58:49.442Z,95811.38
2018-09-25T07:01:23.322Z,95802.77
2018-09-25T07:03:57.196Z,95789.55
2018-09-25T07:06:31.209Z,95814.49
2018-09-25T07:09:05.191Z,95832.87
2018-09-25T07:11:39.112Z,95805.34
2018-09-25T07:14:12.904Z,95816.37
2018-09-25T07:16:46.784Z,95823.98
2018-09-25T07:19:20.761Z,95824.69
2018-09-25T07:21:54.643Z,95816.71
2018-09-25T07:24:28.455Z,95821.80
2018-09-25T07:27:02.404Z,95834.83
2018-09-25T07:29:36.210Z,95817.13
2018-09-25T07:32:10.148Z,95827.08
2018-09-25T07:34:43.990Z,95821.30
2018-09-25T07:37:17.936Z,95823.42
2018-09-25T07:39:51.921Z,95820.62
2018-09-25T07:42:25.745Z,95841.43
2018-09-25T07:44:59.688Z,95836.38
2018-09-25T07:47:33.623Z,95836.10
2018-09-25T07:50:14.426Z,95830.14
2018-09-25T07:52:48.248Z,95829.66
2018-09-25T07:55:22.227Z,95829.13
2018-09-25T07:57:56.104Z,95828.67
2018-09-25T08:00:30.166Z,95827.16
2018-09-25T08:03:04.050Z,95827.20
2018-09-25T08:05:37.969Z,95825.66
2018-09-25T08:08:11.983Z,95820.82
2018-09-25T08:10:45.804Z,95822.17
2018-09-25T08:13:19.657Z,95821.36
2018-09-25T08:15:53.805Z,95817.47
2018-09-25T08:18:27.572Z,95829.58
2018-09-25T08:21:01.520Z,95841.45
2018-09-25T08:23:35.501Z,95821.51
2018-09-25T08:26:09.453Z,95835.23
2018-09-25T08:28:43.272Z,95828.69
2018-09-25T08:31:17.144Z,95833.19
2018-09-25T08:33:51.095Z,95833.11
2018-09-25T08:36:25.106Z,95820.38
2018-09-25T08:38:59.255Z,95814.75
2018-09-25T08:41:33.163Z,95818.98
2018-09-25T08:44:07.180Z,95824.28
2018-09-25T08:46:41.020Z,95816.09
2018-09-25T08:49:15.284Z,95819.77
2018-09-25T08:51:49.140Z,95815.79
2018-09-25T08:54:23.090Z,95826.62
2018-09-25T08:56:56.973Z,95827.19
2018-09-25T08:59:30.885Z,95822.45
2018-09-25T09:02:04.759Z,95834.42
2018-09-25T09:04:38.660Z,95812.57
2018-09-25T09:07:12.744Z,95820.34
2018-09-25T09:09:46.599Z,95827.03
2018-09-25T09:12:20.392Z,95834.08
2018-09-25T09:14:54.470Z,95831.70
2018-09-25T09:17:28.352Z,95821.17
2018-09-25T09:20:02.784Z,95820.48
2018-09-25T09:22:36.664Z,95833.69
2018-09-25T09:25:10.887Z,95834.27
2018-09-25T09:27:44.801Z,95828.88
2018-09-25T09:30:18.847Z,95843.36
2018-09-25T09:32:52.695Z,95824.56
2018-09-25T09:35:26.653Z,95824.63
2018-09-25T09:38:00.438Z,95823.80
2018-09-25T09:40:34.381Z,95830.77
2018-09-25T09:43:08.326Z,95820.63
2018-09-25T09:45:42.289Z,95833.14
2018-09-25T09:48:16.244Z,95829.71
2018-09-25T09:50:50.213Z,95825.58
2018-09-25T09:53:24.116Z,95824.37
2018-09-25T09:55:57.990Z,95827.05
2018-09-25T09:58:31.955Z,95811.11
2018-09-25T10:01:05.859Z,95813.35
2018-09-25T10:03:39.873Z,95807.29
2018-09-25T10:06:13.821Z,95809.68
2018-09-25T10:08:47.670Z,95810.83
2018-09-25T10:11:21.597Z,95808.87
2018-09-25T10:13:55.625Z,95818.53
2018-09-25T10:16:29.553Z,95809.05
2018-09-25T10:19:03.416Z,95799.92
2018-09-25T10:21:37.357Z,95802.30
2018-09-25T10:24:11.290Z,95805.20
2018-09-25T10:26:45.450Z,95799.30
2018-09-25T10:29:19.397Z,95801.04
2018-09-25T10:31:53.135Z,95799.96
2018-09-25T10:34:26.961Z,95801.94
2018-09-25T10:37:00.801Z,95794.03
2018-09-25T10:39:34.809Z,95794.28
2018-09-25T10:42:08.731Z,95780.31
2018-09-25T10:44:42.656Z,95785.66
2018-09-25T10:47:16.694Z,95795.44
2018-09-25T10:49:50.660Z,95784.88
2018-09-25T10:52:24.432Z,95775.98
2018-09-25T10:54:58.397Z,95780.41
2018-09-25T10:57:32.285Z,95780.45
2018-09-25T11:00:06.339Z,95770.00
2018-09-25T11:02:40.224Z,95771.12
2018-09-25T11:05:14.244Z,95761.95
2018-09-25T11:07:48.290Z,95760.78
2018-09-25T11:10:22.313Z,95761.30
2018-09-25T11:12:56.207Z,95758.89
2018-09-25T11:15:30.297Z,95751.37
2018-09-25T11:18:04.329Z,95757.70
2018-09-25T11:20:38.340Z,95751.46
2018-09-25T11:23:12.652Z,95744.25
2018-09-25T11:25:46.443Z,95747.21
2018-09-25T11:28:20.367Z,95744.06
2018-09-25T11:30:54.234Z,95738.95
2018-09-25T11:33:28.152Z,95733.58
2018-09-25T11:36:02.104Z,95733.02
2018-09-25T11:38:35.976Z,95729.83
2018-09-25T11:41:09.998Z,95723.98
2018-09-25T11:43:43.944Z,95724.79
2018-09-25T11:46:17.735Z,95720.91
2018-09-25T11:48:51.508Z,95719.73
2018-09-25T11:51:25.324Z,95716.34
2018-09-25T11:53:59.251Z,95718.39
2018-09-25T11:56:33.080Z,95723.09
2018-09-25T11:59:07.073Z,95709.30
2018-09-25T12:01:40.903Z,95711.87
2018-09-25T12:04:14.715Z,95723.72
2018-09-25T12:06:48.674Z,95712.83
2018-09-25T12:09:22.520Z,95713.69
2018-09-25T12:11:56.388Z,95721.35
2018-09-25T12:14:30.278Z,95727.04
2018-09-25T12:17:04.128Z,95720.47
2018-09-25T12:19:37.998Z,95717.42
2018-09-25T12:22:11.935Z,95724.37
2018-09-25T12:24:45.925Z,95726.89
2018-09-25T12:27:19.843Z,95728.64
2018-09-25T12:29:53.729Z,95716.38
2018-09-25T12:32:27.702Z,95711.27
2018-09-25T12:35:01.694Z,95713.38
2018-09-25T12:37:35.593Z,95710.03
2018-09-25T12:40:09.516Z,95706.73
2018-09-25T12:42:43.434Z,95718.66
2018-09-25T12:45:17.231Z,95709.32
2018-09-25T12:47:51.274Z,95706.31
2018-09-25T12:50:25.202Z,95703.80
2018-09-25T12:52:59.069Z,95709.15
2018-09-25T12:55:33.275Z,95706.34
2018-09-25T12:58:07.160Z,95698.58
2018-09-25T13:00:41.000Z,95702.48
2018-09-25T13:03:14.870Z,95698.57
2018-09-25T13:05:48.769Z,95695.01
2018-09-25T13:08:22.603Z,95700.15
2018-09-25T13:10:56.673Z,95704.30
2018-09-25T13:13:30.609Z,95695.77
2018-09-25T13:16:04.561Z,95700.59
2018-09-25T13:18:38.343Z,95699.53
2018-09-25T13:21:12.194Z,95696.44
2018-09-25T13:23:46.268Z,95702.55
2018-09-25T13:26:20.012Z,95692.86
2018-09-25T13:28:53.949Z,95686.59
2018-09-25T13:31:27.811Z,95681.85
2018-09-25T13:34:01.706Z,95684.53
2018-09-25T13:36:35.558Z,95692.73
2018-09-25T13:39:09.456Z,95700.30
2018-09-25T13:41:43.332Z,95685.34
2018-09-25T13:44:17.304Z,95697.16
2018-09-25T13:46:51.212Z,95691.77
2018-09-25T13:49:25.238Z,95698.41
2018-09-25T13:51:59.183Z,95700.16
2018-09-25T13:54:33.093Z,95695.22
2018-09-25T13:57:07.028Z,95700.34
2018-09-25T13:59:41.061Z,95699.46
2018-09-25T14:02:15.710Z,95701.52
2018-09-25T14:04:50.078Z,95705.95
2018-09-25T14:07:23.959Z,95701.78
2018-09-25T14:09:57.842Z,95697.23
2018-09-25T14:12:31.780Z,95703.16
2018-09-25T14:15:05.825Z,95708.80
2018-09-25T14:17:39.978Z,95704.59
2018-09-25T14:20:13.966Z,95698.25
2018-09-25T14:22:47.787Z,95703.67
2018-09-25T14:25:21.763Z,95706.67
2018-09-25T14:27:55.707Z,95711.36
2018-09-25T14:30:29.456Z,95705.19
2018-09-25T14:33:03.312Z,95701.45
2018-09-25T14:35:37.437Z,95705.91
2018-09-25T14:38:11.430Z,95706.25
2018-09-25T14:40:45.260Z,95713.28
2018-09-25T14:43:19.114Z,95712.14
2018-09-25T14:45:53.110Z,95714.94
2018-09-25T14:48:27.012Z,95722.47
2018-09-25T14:51:00.987Z,95725.41
2018-09-25T14:53:34.934Z,95725.30
2018-09-25T14:56:08.889Z,95734.28
2018-09-25T14:58:42.908Z,95737.70
2018-09-25T15:01:16.868Z,95740.17
2018-09-25T15:03:50.866Z,95749.16
2018-09-25T15:06:24.749Z,95746.22
2018-09-25T15:08:58.769Z,95754.05
2018-09-25T15:11:32.732Z,95745.05
2018-09-25T15:14:06.751Z,95748.84
2018-09-25T15:16:40.575Z,95748.34
2018-09-25T15:19:14.481Z,95743.42
2018-09-25T15:21:48.694Z,95753.55
2018-09-25T15:24:22.491Z,95754.85
2018-09-25T15:26:56.314Z,95756.30
2018-09-25T15:29:30.295Z,95762.63
2018-09-25T15:32:04.372Z,95767.52
2018-09-25T15:34:38.475Z,95773.55
2018-09-25T15:37:12.240Z,95774.68
2018-09-25T15:39:46.111Z,95782.34
2018-09-25T15:42:20.013Z,95782.18
2018-09-25T15:44:53.975Z,95790.84
2018-09-25T15:47:27.893Z,95784.27
2018-09-25T15:50:01.875Z,95792.73
2018-09-25T15:52:35.774Z,95793.87
2018-09-25T15:55:09.577Z,95800.23
2018-09-25T15:57:43.490Z,95802.38
2018-09-25T16:00:17.479Z,95804.88
2018-09-25T16:02:51.426Z,95803.17
2018-09-25T16:05:25.360Z,95813.15
2018-09-25T16:10:45.829Z,95811.11
2018-09-25T16:13:19.997Z,95806.46
2018-09-25T16:15:53.969Z,95815.09
2018-09-25T16:18:27.968Z,95821.19
2018-09-25T16:21:01.879Z,95828.17
2018-09-25T16:23:35.787Z,95839.70
2018-09-25T16:26:09.597Z,95851.50
2018-09-25T16:28:43.609Z,95850.64
2018-09-25T16:31:17.517Z,95853.88
2018-09-25T16:33:51.463Z,95856.83
2018-09-25T16:36:25.432Z,95856.02
2018-09-25T16:38:59.340Z,95867.08
2018-09-25T16:41:33.307Z,95873.83
2018-09-25T16:44:07.145Z,95879.33
2018-09-25T16:46:41.041Z,95882.84
2018-09-25T16:49:14.809Z,95889.09
2018-09-25T16:51:48.791Z,95890.80
2018-09-25T16:54:22.657Z,95888.81
2018-09-25T16:56:56.697Z,95888.26
2018-09-25T16:59:30.655Z,95892.17
2018-09-25T17:02:04.630Z,95901.47
2018-09-25T17:04:38.499Z,95906.19
2018-09-25T17:07:12.461Z,95906.99
2018-09-25T17:09:46.369Z,95914.20
2018-09-25T17:12:20.145Z,95920.77
2018-09-25T17:14:54.141Z,95923.42
2018-09-25T17:17:27.965Z,95919.62
2018-09-25T17:20:01.913Z,95919.81
2018-09-25T17:22:35.739Z,95936.89
2018-09-25T17:25:09.812Z,95943.48
2018-09-25T17:27:43.745Z,95955.20
2018-09-25T17:30:17.556Z,95958.52
2018-09-25T17:32:51.420Z,95956.53
2018-09-25T17:35:25.374Z,95960.73
2018-09-25T17:37:59.487Z,95955.28
2018-09-25T17:40:33.500Z,95951.80
2018-09-25T17:43:07.443Z,95960.22
2018-09-25T17:45:41.371Z,95975.33
2018-09-25T17:48:15.289Z,95981.19
2018-09-25T17:50:49.223Z,95981.89
2018-09-25T17:53:23.117Z,95983.14
2018-09-25T17:55:57.019Z,95974.45
2018-09-25T17:58:31.031Z,95976.06
2018-09-25T18:01:04.855Z,95977.91
2018-09-25T18:03:38.852Z,95983.80
2018-09-25T18:06:12.733Z,95993.66
2018-09-25T18:08:46.745Z,96004.33
2018-09-25T18:11:20.660Z,96006.46
2018-09-25T18:13:54.600Z,95999.06
2018-09-25T18:16:28.406Z,96005.83
2018-09-25T18:19:02.360Z,96009.86
2018-09-25T18:21:36.305Z,96019.23
2018-09-25T18:24:10.253Z,96029.09
2018-09-25T18:26:44.190Z,96030.23
2018-09-25T18:29:18.077Z,96028.67
2018-09-25T18:31:51.947Z,96024.33
2018-09-25T18:34:26.005Z,96026.88
2018-09-25T18:36:59.844Z,96027.72
2018-09-25T18:39:33.840Z,96033.34
2018-09-25T18:42:07.912Z,96031.38
2018-09-25T18:44:41.824Z,96046.23
2018-09-25T18:47:15.673Z,96045.62
2018-09-25T18:49:49.684Z,96040.49
2018-09-25T18:52:23.593Z,96046.38
2018-09-25T18:54:57.918Z,96050.05
2018-09-25T18:57:32.060Z,96049.45
2018-09-25T19:00:05.981Z,96054.92
2018-09-25T19:02:39.870Z,96054.52
2018-09-25T19:05:13.929Z,96054.45
2018-09-25T19:07:47.776Z,96059.56
2018-09-25T19:10:21.773Z,96060.94
2018-09-25T19:12:55.640Z,96067.78
2018-09-25T19:15:29.566Z,96070.98
2018-09-25T19:18:04.551Z,96073.88
2018-09-25T19:20:38.472Z,96077.37
2018-09-25T19:23:12.413Z,96074.84
2018-09-25T19:25:46.300Z,96080.23
2018-09-25T19:28:20.178Z,96085.09
2018-09-25T19:30:53.917Z,96084.48
2018-09-25T19:33:27.792Z,96088.70
2018-09-25T19:36:01.829Z,96077.50
2018-09-25T19:38:35.773Z,96081.45
2018-09-25T19:41:09.647Z,96084.80
2018-09-25T19:43:43.739Z,96086.10
2018-09-25T19:46:17.720Z,96095.88
2018-09-25T19:48:51.538Z,96092.27
2018-09-25T19:51:25.485Z,96090.69
2018-09-25T19:53:59.384Z,96103.30
2018-09-25T19:56:33.313Z,96096.73
2018-09-25T19:59:07.232Z,96107.48
2018-09-25T20:01:41.406Z,96108.50
2018-09-25T20:04:15.238Z,96111.66
2018-09-25T20:06:49.032Z,96117.80
2018-09-25T20:09:23.038Z,96119.91
2018-09-25T20:11:56.652Z,96124.37
2018-09-25T20:14:30.602Z,96124.41
2018-09-25T20:17:04.474Z,96123.23
2018-09-25T20:19:38.538Z,96119.17
2018-09-25T20:22:13.431Z,96115.83
2018-09-25T20:24:47.368Z,96117.03
2018-09-25T20:27:21.296Z,96119.91
2018-09-25T20:29:55.152Z,96124.26
2018-09-25T20:32:29.212Z,96128.25
2018-09-25T20:35:03.065Z,96127.87
2018-09-25T20:37:36.832Z,96129.66
2018-09-25T20:40:11.383Z,96134.31
2018-09-25T20:42:45.220Z,96137.53
2018-09-25T20:45:19.096Z,96133.58
2018-09-25T20:47:52.923Z,96136.31
2018-09-25T20:50:26.968Z,96140.34
2018-09-25T20:53:00.944Z,96138.83
2018-09-25T20:55:34.901Z,96135.75
2018-09-25T20:58:08.769Z,96127.60
2018-09-25T21:00:42.948Z,96142.23
2018-09-25T21:03:16.742Z,96137.92
2018-09-25T21:05:50.602Z,96137.80
2018-09-25T21:08:24.555Z,96130.70
2018-09-25T21:10:58.421Z,96132.08
2018-09-25T21:13:32.396Z,96130.33
2018-09-25T21:16:06.413Z,96133.86
2018-09-25T21:18:40.425Z,96130.88
2018-09-25T21:21:14.303Z,96139.25
2018-09-25T21:23:48.154Z,96133.68
2018-09-25T21:26:22.114Z,96131.23
2018-09-25T21:28:56.069Z,96124.17
2018-09-25T21:31:29.837Z,96124.07
2018-09-25T21:34:03.764Z,96122.65
2018-09-25T21:36:37.729Z,96131.05
2018-09-25T21:39:14.327Z,96132.13
2018-09-25T21:41:48.690Z,96126.45
2018-09-25T21:44:22.683Z,96129.05
2018-09-25T21:46:56.702Z,96127.52
2018-09-25T21:49:30.651Z,96131.28
2018-09-25T21:52:04.537Z,96135.97
2018-09-25T21:54:38.383Z,96121.58
2018-09-25T21:57:12.405Z,96124.66
2018-09-25T21:59:46.176Z,96127.64
2018-09-25T22:02:20.100Z,96126.73
2018-09-25T22:04:53.974Z,96127.28
2018-09-25T22:07:27.943Z,96125.27
2018-09-25T22:10:01.883Z,96125.50
2018-09-25T22:12:35.767Z,96130.33
2018-09-25T22:15:09.904Z,96131.76
2018-09-25T22:17:43.623Z,96134.58
2018-09-25T22:20:17.541Z,96141.80
2018-09-25T22:22:52.283Z,96137.56
2018-09-25T22:25:26.228Z,96127.06
2018-09-25T22:28:00.092Z,96126.70
2018-09-25T22:30:33.960Z,96134.16
2018-09-25T22:33:08.031Z,96132.15
2018-09-25T22:35:42.224Z,96130.88
2018-09-25T22:38:16.142Z,96128.41
2018-09-25T22:40:50.252Z,96132.66
2018-09-25T22:43:24.400Z,96134.30
2018-09-25T22:45:58.310Z,96134.91
2018-09-25T22:48:32.257Z,96134.80
2018-09-25T22:51:06.152Z,96137.50
2018-09-25T22:53:40.078Z,96146.31
2018-09-25T22:56:14.056Z,96147.70
2018-09-25T22:58:47.796Z,96140.56
2018-09-25T23:01:21.719Z,96142.21
2018-09-25T23:03:55.576Z,96143.64
2018-09-25T23:06:29.540Z,96143.61
2018-09-25T23:09:03.533Z,96145.39
2018-09-25T23:11:37.448Z,96154.23
2018-09-25T23:14:11.463Z,96151.50
2018-09-25T23:16:45.522Z,96150.12
2018-09-25T23:19:19.434Z,96153.86
2018-09-25T23:21:53.545Z,96149.63
2018-09-25T23:24:27.412Z,96143.03
2018-09-25T23:27:01.504Z,96136.80
2018-09-25T23:29:35.368Z,96140.91
2018-09-25T23:32:09.315Z,96143.96
2018-09-25T23:34:43.537Z,96144.34
2018-09-25T23:37:17.496Z,96142.82
2018-09-25T23:40:07.882Z,96146.81
2018-09-25T23:42:41.087Z,96143.87
2018-09-25T23:45:22.107Z,96142.10
2018-09-25T23:48:00.889Z,96147.77
2018-09-25T23:50:38.361Z,96150.94
2018-09-25T23:53:11.757Z,96153.52
2018-09-25T23:55:44.676Z,96151.27
2018-09-25T23:58:16.984Z,96151.51
